Time;durP1;ratioP1;P1;durP2;ratioP2;P2;SDS_P1;SDS_P2;PMS_P1;PMS_P2;Temp;Humidity;BMP_temperature;BMP_pressure;BME280_temperature;BME280_humidity;BME280_pressure;Samples;Min_cycle;Max_cycle;Signal;HPM_P1;HPM_P2
2023/10/02 00:01:06;;;;;;;8.77;7.95;;;;;;;;;;5057506;28;20051;-51
2023/10/02 00:03:34;;;;;;;7.68;6.97;;;;;;;;;;5042644;28;20028;-51
2023/10/02 00:05:59;;;;;;;9.52;7.95;;;;;;;;;;5055595;28;20140;-53
2023/10/02 00:08:31;;;;;;;8.10;7.30;;;;;;;;;;5057786;28;20122;-49
2023/10/02 00:14:20;;;;;;;8.57;7.22;;;;;;;;;;5058677;28;20685;-51
2023/10/02 00:17:03;;;;;;;8.40;7.70;;;;;;;;;;5051529;28;20034;-54
2023/10/02 00:19:30;;;;;;;9.25;8.35;;;;;;;;;;5054054;28;20029;-52
2023/10/02 00:21:57;;;;;;;9.32;6.47;;;;;;;;;;5057999;28;20499;-54
2023/10/02 00:24:24;;;;;;;8.48;7.45;;;;;;;;;;5047804;28;20037;-50
2023/10/02 00:26:51;;;;;;;17.40;8.07;;;;;;;;;;5066030;28;20075;-54
2023/10/02 00:29:17;;;;;;;7.35;6.65;;;;;;;;;;5059944;28;20048;-51
2023/10/02 00:31:46;;;;;;;7.63;5.88;;;;;;;;;;5059888;28;20068;-50
2023/10/02 00:34:13;;;;;;;9.57;8.68;;;;;;;;;;5058381;28;20080;-49
2023/10/02 00:36:40;;;;;;;10.43;9.57;;;;;;;;;;5058967;28;20091;-51
2023/10/02 00:47:41;;;;;;;8.18;6.97;;;;;;;;;;5057161;28;20111;-52
2023/10/02 00:50:17;;;;;;;9.88;7.85;;;;;;;;;;5059570;28;20033;-48
2023/10/02 00:53:03;;;;;;;7.18;6.38;;;;;;;;;;5058945;28;20108;-54
2023/10/02 00:55:32;;;;;;;7.85;7.05;;;;;;;;;;5058425;28;20036;-51
2023/10/02 00:57:58;;;;;;;8.40;6.85;;;;;;;;;;5058162;28;20017;-52
2023/10/02 01:00:35;;;;;;;8.38;7.30;;;;;;;;;;5057974;28;20044;-54
2023/10/02 01:03:04;;;;;;;8.48;7.68;;;;;;;;;;5049379;28;20085;-50
2023/10/02 01:05:41;;;;;;;8.43;7.70;;;;;;;;;;5060170;28;20072;-51
2023/10/02 01:08:23;;;;;;;8.57;7.43;;;;;;;;;;5055813;28;20049;-52
2023/10/02 01:10:56;;;;;;;8.40;7.60;;;;;;;;;;5056641;28;20029;-54
2023/10/02 01:13:32;;;;;;;9.07;7.55;;;;;;;;;;5060551;28;20051;-54
2023/10/02 01:16:00;;;;;;;12.68;7.75;;;;;;;;;;5060419;28;20426;-50
2023/10/02 01:18:29;;;;;;;9.73;7.93;;;;;;;;;;5064166;28;20446;-51
2023/10/02 01:21:00;;;;;;;10.65;7.13;;;;;;;;;;5053296;28;20057;-51
2023/10/02 01:23:27;;;;;;;9.15;8.25;;;;;;;;;;5058864;28;20101;-50
2023/10/02 01:26:00;;;;;;;8.05;7.30;;;;;;;;;;5062073;28;20048;-48
2023/10/02 01:28:32;;;;;;;9.15;8.25;;;;;;;;;;5057225;28;20615;-51
2023/10/02 01:31:31;;;;;;;10.98;7.68;;;;;;;;;;5053440;28;20040;-53
2023/10/02 01:33:45;;;;;;;8.45;7.75;;;;;;;;;;5056230;28;20020;-52
2023/10/02 01:36:11;;;;;;;7.93;6.88;;;;;;;;;;5057831;28;20041;-51
2023/10/02 01:38:37;;;;;;;7.95;7.22;;;;;;;;;;5057132;28;20025;-55
2023/10/02 01:41:06;;;;;;;8.23;7.30;;;;;;;;;;5057844;28;20067;-50
2023/10/02 01:43:45;;;;;;;9.40;8.10;;;;;;;;;;5063757;28;20049;-52
2023/10/02 01:46:17;;;;;;;8.73;7.93;;;;;;;;;;5065457;28;20052;-51
2023/10/02 01:48:48;;;;;;;9.15;8.35;;;;;;;;;;5058687;28;20028;-51
2023/10/02 01:51:31;;;;;;;9.30;7.00;;;;;;;;;;5060676;28;20394;-54
2023/10/02 01:54:15;;;;;;;8.52;7.68;;;;;;;;;;5057326;28;20029;-53
2023/10/02 01:56:45;;;;;;;8.48;7.68;;;;;;;;;;5059566;28;20075;-50
2023/10/02 01:59:14;;;;;;;8.50;7.30;;;;;;;;;;5058363;28;20122;-50
2023/10/02 02:01:52;;;;;;;9.43;8.32;;;;;;;;;;5050514;28;20029;-53
2023/10/02 02:04:21;;;;;;;7.13;6.10;;;;;;;;;;5057763;28;20025;-52
2023/10/02 02:06:55;;;;;;;8.63;7.35;;;;;;;;;;5059261;28;20052;-53
2023/10/02 02:09:30;;;;;;;8.18;7.35;;;;;;;;;;5056980;28;20032;-52
2023/10/02 02:12:06;;;;;;;9.63;8.55;;;;;;;;;;5055052;28;20044;-53
2023/10/02 02:14:49;;;;;;;10.20;7.15;;;;;;;;;;5052338;28;20090;-54
2023/10/02 02:17:17;;;;;;;9.02;7.70;;;;;;;;;;5050037;28;20037;-52
2023/10/02 02:19:48;;;;;;;9.45;8.48;;;;;;;;;;5054927;28;20021;-55
2023/10/02 02:22:25;;;;;;;9.25;8.38;;;;;;;;;;5058273;28;20029;-51
2023/10/02 02:24:51;;;;;;;8.13;7.20;;;;;;;;;;5059838;28;20036;-52
2023/10/02 02:27:19;;;;;;;8.43;7.05;;;;;;;;;;5065386;28;20048;-53
2023/10/02 02:29:48;;;;;;;8.60;7.80;;;;;;;;;;5055909;28;20406;-51
2023/10/02 02:32:14;;;;;;;9.57;8.25;;;;;;;;;;5055783;28;20041;-52
2023/10/02 02:34:39;;;;;;;9.40;8.35;;;;;;;;;;5058410;28;20032;-51
2023/10/02 02:37:06;;;;;;;10.80;8.10;;;;;;;;;;5061958;28;20556;-52
2023/10/02 02:39:37;;;;;;;9.68;8.50;;;;;;;;;;5057251;28;20027;-54
2023/10/02 02:42:09;;;;;;;14.85;8.50;;;;;;;;;;5059571;28;20041;-50
2023/10/02 02:44:46;;;;;;;8.05;7.32;;;;;;;;;;5057832;28;20049;-50
2023/10/02 02:47:13;;;;;;;8.57;7.45;;;;;;;;;;5057534;28;20402;-53
2023/10/02 02:49:52;;;;;;;9.45;8.50;;;;;;;;;;5058641;28;20024;-53
2023/10/02 02:52:19;;;;;;;8.88;8.00;;;;;;;;;;5056762;28;20033;-53
2023/10/02 02:54:45;;;;;;;9.40;8.50;;;;;;;;;;5059680;28;20053;-54
2023/10/02 02:57:12;;;;;;;8.98;7.63;;;;;;;;;;5054731;28;20198;-52
2023/10/02 02:59:38;;;;;;;8.65;7.75;;;;;;;;;;5053966;28;20024;-53
2023/10/02 03:02:20;;;;;;;9.70;8.77;;;;;;;;;;5060606;28;20158;-54
2023/10/02 03:04:47;;;;;;;9.68;8.70;;;;;;;;;;5047632;28;20025;-50
2023/10/02 03:07:29;;;;;;;10.48;8.32;;;;;;;;;;5052764;28;20053;-51
2023/10/02 03:09:58;;;;;;;9.20;8.25;;;;;;;;;;5049921;28;20021;-52
2023/10/02 03:12:24;;;;;;;8.73;7.82;;;;;;;;;;5057834;28;20051;-49
2023/10/02 03:14:54;;;;;;;9.07;8.18;;;;;;;;;;5056048;28;20028;-53
2023/10/02 03:17:28;;;;;;;9.35;6.97;;;;;;;;;;5052867;28;20045;-52
2023/10/02 03:19:54;;;;;;;9.40;8.20;;;;;;;;;;5061241;28;20430;-51
2023/10/02 03:22:20;;;;;;;9.13;8.18;;;;;;;;;;5056754;28;20076;-51
2023/10/02 03:24:46;;;;;;;10.60;9.52;;;;;;;;;;5055500;28;20032;-51
2023/10/02 03:27:14;;;;;;;9.15;8.25;;;;;;;;;;5058932;28;20047;-53
2023/10/02 03:29:40;;;;;;;9.80;7.40;;;;;;;;;;5056374;28;20021;-54
2023/10/02 03:32:09;;;;;;;10.02;9.02;;;;;;;;;;5052565;28;20041;-50
2023/10/02 03:34:34;;;;;;;9.88;8.55;;;;;;;;;;5052092;28;20029;-53
2023/10/02 03:37:08;;;;;;;8.90;8.00;;;;;;;;;;5060830;28;20055;-50
2023/10/02 03:42:37;;;;;;;10.70;9.18;;;;;;;;;;4979684;28;20042;-52
2023/10/02 03:45:04;;;;;;;10.05;8.63;;;;;;;;;;5043236;28;20044;-53
2023/10/02 03:47:30;;;;;;;8.88;7.82;;;;;;;;;;5061869;28;20036;-55
2023/10/02 03:50:00;;;;;;;8.60;7.00;;;;;;;;;;5054048;28;20029;-53
2023/10/02 03:52:31;;;;;;;9.05;8.18;;;;;;;;;;5057525;28;20029;-51
2023/10/02 03:54:59;;;;;;;9.07;8.00;;;;;;;;;;5058570;28;20033;-49
2023/10/02 04:00:17;;;;;;;9.25;8.20;;;;;;;;;;5051831;28;20040;-51
2023/10/02 04:02:45;;;;;;;8.75;7.93;;;;;;;;;;5048619;28;20432;-52
2023/10/02 04:05:12;;;;;;;9.25;8.35;;;;;;;;;;5054961;28;20043;-53
2023/10/02 04:07:37;;;;;;;11.90;8.38;;;;;;;;;;5054020;28;20052;-54
2023/10/02 04:10:06;;;;;;;9.27;7.78;;;;;;;;;;5055748;28;20025;-50
2023/10/02 04:12:50;;;;;;;9.05;8.15;;;;;;;;;;5047399;28;20017;-52
2023/10/02 04:15:18;;;;;;;9.35;8.32;;;;;;;;;;5057844;28;20044;-54
2023/10/02 04:17:49;;;;;;;9.52;8.35;;;;;;;;;;5058410;28;20029;-54
2023/10/02 04:20:27;;;;;;;9.02;7.95;;;;;;;;;;5055824;28;20027;-49
2023/10/02 04:23:18;;;;;;;8.15;7.18;;;;;;;;;;5061480;28;20031;-52
2023/10/02 04:25:43;;;;;;;9.82;8.00;;;;;;;;;;5063409;28;20055;-53
2023/10/02 04:28:08;;;;;;;10.32;9.32;;;;;;;;;;5054819;28;20032;-48
2023/10/02 04:30:37;;;;;;;9.63;7.75;;;;;;;;;;5058209;28;20063;-52
2023/10/02 04:33:08;;;;;;;11.43;8.75;;;;;;;;;;5055636;28;20067;-53
2023/10/02 04:35:47;;;;;;;11.65;9.55;;;;;;;;;;5053665;28;20033;-53
2023/10/02 04:38:47;;;;;;;9.52;8.63;;;;;;;;;;5056989;28;20033;-52
2023/10/02 04:41:03;;;;;;;9.77;8.77;;;;;;;;;;5051210;28;20275;-51
2023/10/02 04:43:29;;;;;;;9.90;8.93;;;;;;;;;;5047850;28;20073;-53
2023/10/02 04:46:02;;;;;;;9.02;8.20;;;;;;;;;;5055643;28;20171;-54
2023/10/02 04:48:39;;;;;;;9.75;8.52;;;;;;;;;;5046885;28;20039;-54
2023/10/02 04:51:08;;;;;;;10.35;7.80;;;;;;;;;;5056265;28;20044;-53
2023/10/02 04:53:39;;;;;;;9.82;8.93;;;;;;;;;;5054056;28;20102;-53
2023/10/02 04:56:13;;;;;;;11.45;8.25;;;;;;;;;;5049401;28;20123;-52
2023/10/02 04:58:49;;;;;;;10.77;9.07;;;;;;;;;;5042390;28;20463;-54
2023/10/02 05:01:28;;;;;;;9.68;8.65;;;;;;;;;;5049899;28;20044;-52
2023/10/02 05:03:55;;;;;;;9.23;8.40;;;;;;;;;;5061406;28;20031;-52
2023/10/02 05:11:52;;;;;;;11.02;8.23;;;;;;;;;;5050349;28;20041;-52
2023/10/02 05:14:29;;;;;;;10.80;9.23;;;;;;;;;;5055615;28;20049;-52
2023/10/02 05:17:17;;;;;;;9.98;8.73;;;;;;;;;;5052518;28;20122;-54
2023/10/02 05:20:15;;;;;;;9.77;8.88;;;;;;;;;;5059140;28;20425;-53
2023/10/02 05:22:38;;;;;;;10.38;9.38;;;;;;;;;;5055153;28;20399;-51
2023/10/02 05:25:04;;;;;;;8.38;7.57;;;;;;;;;;5051012;28;20025;-52
2023/10/02 05:27:39;;;;;;;10.85;9.18;;;;;;;;;;5048538;28;20059;-54
2023/10/02 05:30:13;;;;;;;8.15;7.45;;;;;;;;;;5048193;28;20107;-53
2023/10/02 05:32:40;;;;;;;10.43;9.35;;;;;;;;;;5051927;28;20029;-50
2023/10/02 05:37:42;;;;;;;11.02;8.38;;;;;;;;;;5050240;28;20397;-54
2023/10/02 05:42:53;;;;;;;8.90;8.10;;;;;;;;;;5042305;28;20463;-51
2023/10/02 05:48:07;;;;;;;10.90;8.75;;;;;;;;;;5049173;28;20097;-54
2023/10/02 05:50:40;;;;;;;10.95;9.82;;;;;;;;;;5049516;28;20607;-53
2023/10/02 05:53:06;;;;;;;10.77;8.63;;;;;;;;;;5051936;28;20032;-54
2023/10/02 05:55:56;;;;;;;9.30;8.40;;;;;;;;;;5049819;28;20033;-52
2023/10/02 05:58:27;;;;;;;9.65;8.65;;;;;;;;;;5057033;28;20032;-52
2023/10/02 06:00:53;;;;;;;10.82;9.30;;;;;;;;;;5059749;28;20037;-53
2023/10/02 06:03:21;;;;;;;10.55;9.55;;;;;;;;;;5050961;28;20029;-51
2023/10/02 06:06:10;;;;;;;8.90;8.00;;;;;;;;;;5046352;28;20037;-53
2023/10/02 06:08:33;;;;;;;11.15;10.05;;;;;;;;;;5049703;28;20440;-50
2023/10/02 06:11:20;;;;;;;11.18;8.77;;;;;;;;;;5043082;28;20044;-51
2023/10/02 06:13:45;;;;;;;12.55;9.10;;;;;;;;;;5052102;28;20959;-51
2023/10/02 06:16:10;;;;;;;10.98;8.23;;;;;;;;;;5053344;28;20041;-51
2023/10/02 06:18:38;;;;;;;11.75;8.75;;;;;;;;;;5047901;28;20063;-53
2023/10/02 06:21:04;;;;;;;9.73;8.77;;;;;;;;;;5047422;28;20037;-47
2023/10/02 06:23:37;;;;;;;9.27;8.30;;;;;;;;;;5050343;28;20043;-50
2023/10/02 06:26:04;;;;;;;15.25;13.18;;;;;;;;;;5056308;28;20048;-50
2023/10/02 06:28:30;;;;;;;12.15;10.40;;;;;;;;;;5060327;28;20632;-52
2023/10/02 06:30:56;;;;;;;10.48;9.40;;;;;;;;;;5061039;28;20033;-50
2023/10/02 06:33:22;;;;;;;9.18;7.57;;;;;;;;;;5051784;28;20036;-51
2023/10/02 06:35:56;;;;;;;10.02;8.75;;;;;;;;;;5051822;28;20498;-53
2023/10/02 06:38:29;;;;;;;12.15;9.68;;;;;;;;;;5046237;28;20510;-52
2023/10/02 06:40:57;;;;;;;10.57;8.60;;;;;;;;;;5053942;28;20123;-50
2023/10/02 06:43:31;;;;;;;11.20;10.07;;;;;;;;;;5053369;28;20457;-49
2023/10/02 06:46:19;;;;;;;10.93;9.23;;;;;;;;;;5054875;28;20457;-53
2023/10/02 06:48:46;;;;;;;11.13;10.02;;;;;;;;;;5052973;28;20037;-48
2023/10/02 06:51:16;;;;;;;8.82;7.93;;;;;;;;;;5058738;28;20041;-52
2023/10/02 06:53:42;;;;;;;9.25;8.32;;;;;;;;;;5051325;28;20035;-53
2023/10/02 06:56:12;;;;;;;11.57;9.50;;;;;;;;;;5052990;28;20033;-51
2023/10/02 06:58:52;;;;;;;11.02;10.02;;;;;;;;;;5050808;28;20024;-49
2023/10/02 07:01:19;;;;;;;8.52;7.70;;;;;;;;;;5049344;28;20103;-50
2023/10/02 07:03:51;;;;;;;13.05;8.32;;;;;;;;;;5044940;28;20033;-50
2023/10/02 07:06:20;;;;;;;9.55;8.60;;;;;;;;;;5051180;28;20049;-50
2023/10/02 07:09:10;;;;;;;9.95;9.07;;;;;;;;;;5054304;28;20032;-51
2023/10/02 07:11:35;;;;;;;10.13;9.20;;;;;;;;;;5057163;28;20057;-49
2023/10/02 07:14:04;;;;;;;9.80;8.90;;;;;;;;;;5052677;28;20037;-51
2023/10/02 07:16:32;;;;;;;9.73;8.77;;;;;;;;;;5057949;28;20044;-52
2023/10/02 07:18:58;;;;;;;9.70;8.85;;;;;;;;;;5054528;28;20037;-54
2023/10/02 07:21:25;;;;;;;10.13;9.18;;;;;;;;;;5053260;28;20044;-49
2023/10/02 07:23:50;;;;;;;9.75;8.75;;;;;;;;;;5052108;28;20024;-52
2023/10/02 07:26:19;;;;;;;10.43;9.40;;;;;;;;;;5054743;28;20044;-50
2023/10/02 07:28:51;;;;;;;9.15;8.32;;;;;;;;;;5057938;28;20031;-53
2023/10/02 07:31:18;;;;;;;8.98;8.18;;;;;;;;;;5054661;28;20094;-53
2023/10/02 07:33:44;;;;;;;9.73;8.75;;;;;;;;;;5056811;28;20429;-51
2023/10/02 07:36:14;;;;;;;9.60;7.65;;;;;;;;;;5052242;28;20145;-46
2023/10/02 07:38:42;;;;;;;8.60;7.70;;;;;;;;;;5058004;28;20039;-52
2023/10/02 07:41:17;;;;;;;9.30;8.43;;;;;;;;;;5056015;28;20041;-49
2023/10/02 07:43:42;;;;;;;13.43;9.70;;;;;;;;;;5059706;28;20033;-53
2023/10/02 07:46:19;;;;;;;11.32;8.35;;;;;;;;;;5056178;28;20033;-49
2023/10/02 07:48:57;;;;;;;9.93;8.15;;;;;;;;;;5055335;28;20021;-51
2023/10/02 07:51:30;;;;;;;8.27;7.57;;;;;;;;;;5050434;28;20041;-48
2023/10/02 07:53:58;;;;;;;7.90;7.13;;;;;;;;;;5056752;28;20036;-51
2023/10/02 07:56:25;;;;;;;9.70;7.47;;;;;;;;;;5054588;28;20045;-53
2023/10/02 07:58:55;;;;;;;8.32;7.70;;;;;;;;;;5054422;28;20041;-53
2023/10/02 08:01:25;;;;;;;8.10;7.43;;;;;;;;;;5052565;28;20036;-49
2023/10/02 08:03:51;;;;;;;9.10;8.23;;;;;;;;;;5049591;28;20041;-52
2023/10/02 08:06:21;;;;;;;8.98;7.45;;;;;;;;;;5038011;28;20459;-50
2023/10/02 08:11:42;;;;;;;9.25;8.35;;;;;;;;;;5055323;28;20044;-50
2023/10/02 08:14:34;;;;;;;7.13;6.53;;;;;;;;;;5055269;28;20029;-52
2023/10/02 08:17:00;;;;;;;7.22;6.53;;;;;;;;;;5051790;28;20123;-51
2023/10/02 08:19:28;;;;;;;;;;;;;;;;;;5051734;28;20074;-47
2023/10/02 08:21:55;;;;;;;8.95;8.25;;;;;;;;;;5050780;28;19948;-50
2023/10/02 08:24:20;;;;;;;7.60;6.88;;;;;;;;;;5056443;28;20017;-55
2023/10/02 08:26:47;;;;;;;6.97;6.28;;;;;;;;;;5058934;28;20033;-50
2023/10/02 08:29:14;;;;;;;6.53;5.47;;;;;;;;;;5055184;28;20040;-53
2023/10/02 08:31:45;;;;;;;8.43;6.80;;;;;;;;;;5053962;28;20078;-53
2023/10/02 08:34:13;;;;;;;6.53;5.85;;;;;;;;;;5060146;28;20037;-53
2023/10/02 08:36:41;;;;;;;10.05;6.30;;;;;;;;;;5057608;28;20033;-54
2023/10/02 08:39:08;;;;;;;;;;;;;;;;;;5051787;28;20025;-52
2023/10/02 08:41:43;;;;;;;5.88;5.28;;;;;;;;;;5046741;28;19916;-54
2023/10/02 08:44:13;;;;;;;6.43;5.93;;;;;;;;;;5055314;28;20033;-54
2023/10/02 08:46:42;;;;;;;6.13;5.53;;;;;;;;;;5075541;28;20485;-54
2023/10/02 08:49:16;;;;;;;6.85;5.95;;;;;;;;;;5059567;28;20029;-52
2023/10/02 08:51:51;;;;;;;7.15;4.72;;;;;;;;;;5057849;28;20111;-50
2023/10/02 08:54:18;;;;;;;6.03;5.35;;;;;;;;;;5060611;28;20482;-55
2023/10/02 08:56:44;;;;;;;6.80;6.20;;;;;;;;;;5057528;28;20044;-54
2023/10/02 08:59:17;;;;;;;6.35;5.78;;;;;;;;;;5064647;28;20498;-54
2023/10/02 09:01:47;;;;;;;5.25;4.85;;;;;;;;;;5050657;28;20108;-50
2023/10/02 09:04:22;;;;;;;8.68;6.75;;;;;;;;;;5060660;28;20025;-50
2023/10/02 09:06:49;;;;;;;6.40;5.78;;;;;;;;;;5054647;28;20040;-54
2023/10/02 09:09:26;;;;;;;6.15;5.55;;;;;;;;;;5065722;28;20021;-53
2023/10/02 09:11:53;;;;;;;7.72;6.38;;;;;;;;;;5051838;28;20116;-53
2023/10/02 09:16:47;;;;;;;5.55;5.05;;;;;;;;;;5059116;28;20031;-55
2023/10/02 09:19:28;;;;;;;7.63;6.00;;;;;;;;;;5063989;28;20066;-54
2023/10/02 09:22:06;;;;;;;6.53;5.53;;;;;;;;;;5050790;28;20048;-48
2023/10/02 09:24:35;;;;;;;7.03;6.30;;;;;;;;;;5059187;28;20021;-52
2023/10/02 09:27:23;;;;;;;7.60;5.45;;;;;;;;;;5060773;28;20064;-53
2023/10/02 09:32:47;;;;;;;6.60;5.05;;;;;;;;;;5053951;28;20418;-50
2023/10/02 09:35:31;;;;;;;5.97;5.00;;;;;;;;;;5054328;28;20502;-53
2023/10/02 09:38:03;;;;;;;8.40;6.10;;;;;;;;;;5052333;28;20036;-52
2023/10/02 09:41:15;;;;;;;7.70;6.30;;;;;;;;;;5059474;28;20060;-53
2023/10/02 09:43:33;;;;;;;7.40;5.75;;;;;;;;;;5050574;28;20254;-51
2023/10/02 09:46:05;;;;;;;6.25;5.65;;;;;;;;;;5068269;28;20144;-52
2023/10/02 09:51:25;;;;;;;6.70;6.05;;;;;;;;;;5044803;28;20055;-52
2023/10/02 09:54:08;;;;;;;7.63;6.45;;;;;;;;;;5052781;28;20915;-52
2023/10/02 09:56:51;;;;;;;6.78;5.65;;;;;;;;;;5050550;28;20097;-53
2023/10/02 09:59:19;;;;;;;5.72;4.85;;;;;;;;;;5057398;28;20104;-50
2023/10/02 10:02:56;;;;;;;6.78;6.18;;;;;;;;;;5060678;28;20056;-53
2023/10/02 10:08:18;;;;;;;8.75;5.97;;;;;;;;;;5050461;28;20049;-53
2023/10/02 10:10:50;;;;;;;7.50;5.80;;;;;;;;;;5051147;28;20057;-51
2023/10/02 10:13:37;;;;;;;7.05;6.28;;;;;;;;;;5065618;28;20140;-54
2023/10/02 10:16:23;;;;;;;6.40;5.03;;;;;;;;;;5059933;28;20037;-53
2023/10/02 10:21:57;;;;;;;5.35;4.85;;;;;;;;;;5055912;28;20406;-55
2023/10/02 10:27:38;;;;;;;8.38;4.95;;;;;;;;;;5045965;28;20410;-51
2023/10/02 10:30:19;;;;;;;5.35;4.32;;;;;;;;;;5055701;28;20112;-53
2023/10/02 10:32:45;;;;;;;5.97;5.43;;;;;;;;;;5049629;28;20376;-54
2023/10/02 10:35:29;;;;;;;5.70;4.80;;;;;;;;;;5052702;28;20100;-51
2023/10/02 10:37:56;;;;;;;6.03;5.50;;;;;;;;;;5058686;28;20020;-51
2023/10/02 10:40:43;;;;;;;5.85;5.32;;;;;;;;;;5061245;28;20574;-51
2023/10/02 10:43:16;;;;;;;6.75;5.32;;;;;;;;;;5045252;28;20035;-52
2023/10/02 10:45:44;;;;;;;6.00;5.47;;;;;;;;;;5063386;28;20048;-55
2023/10/02 10:48:23;;;;;;;5.28;4.88;;;;;;;;;;5046700;28;20056;-51
2023/10/02 10:51:06;;;;;;;5.38;4.63;;;;;;;;;;5051614;28;20048;-52
2023/10/02 10:53:41;;;;;;;5.72;5.18;;;;;;;;;;5051435;28;20518;-53
2023/10/02 10:56:19;;;;;;;7.22;5.38;;;;;;;;;;5051773;28;20446;-53
2023/10/02 10:58:46;;;;;;;6.45;5.85;;;;;;;;;;5049411;28;20032;-51
2023/10/02 11:01:16;;;;;;;6.97;6.35;;;;;;;;;;5050684;28;20061;-51
2023/10/02 11:03:54;;;;;;;6.38;5.47;;;;;;;;;;5053389;28;20490;-54
2023/10/02 11:06:23;;;;;;;7.93;7.22;;;;;;;;;;5046280;28;20132;-51
2023/10/02 11:09:11;;;;;;;6.50;5.90;;;;;;;;;;5051761;28;20474;-53
2023/10/02 11:11:49;;;;;;;6.18;5.45;;;;;;;;;;5046218;28;20029;-55
2023/10/02 11:14:21;;;;;;;7.25;6.65;;;;;;;;;;5048889;28;20487;-50
2023/10/02 11:16:51;;;;;;;6.82;6.13;;;;;;;;;;5059193;28;20100;-52
2023/10/02 11:22:16;;;;;;;5.90;4.30;;;;;;;;;;5057140;28;20116;-52
2023/10/02 11:25:18;;;;;;;6.53;5.85;;;;;;;;;;5049354;28;20032;-51
2023/10/02 11:27:56;;;;;;;4.82;4.43;;;;;;;;;;5053209;28;20491;-50
2023/10/02 11:30:31;;;;;;;6.43;4.30;;;;;;;;;;5046941;28;20043;-53
2023/10/02 11:33:05;;;;;;;5.93;5.38;;;;;;;;;;5048569;28;20085;-51
2023/10/02 11:35:38;;;;;;;4.78;4.32;;;;;;;;;;5048348;28;20104;-49
2023/10/02 11:38:07;;;;;;;5.00;4.63;;;;;;;;;;5050230;28;20021;-52
2023/10/02 11:40:36;;;;;;;3.42;3.13;;;;;;;;;;5054017;28;20044;-50
2023/10/02 11:43:02;;;;;;;4.40;4.00;;;;;;;;;;5066310;28;20025;-48
2023/10/02 11:45:32;;;;;;;4.35;3.63;;;;;;;;;;5055006;28;20062;-53
2023/10/02 11:47:58;;;;;;;4.13;3.72;;;;;;;;;;5057912;28;20025;-53
2023/10/02 11:50:23;;;;;;;4.60;4.03;;;;;;;;;;5056669;28;20037;-53
2023/10/02 11:52:49;;;;;;;4.53;4.20;;;;;;;;;;5061032;28;20021;-49
2023/10/02 11:55:17;;;;;;;4.93;4.50;;;;;;;;;;5056729;28;20059;-51
2023/10/02 11:57:44;;;;;;;4.70;4.25;;;;;;;;;;5056309;28;20378;-53
2023/10/02 12:00:12;;;;;;;12.40;3.83;;;;;;;;;;5057831;28;20102;-53
2023/10/02 12:02:39;;;;;;;4.30;3.28;;;;;;;;;;5057045;28;20102;-51
2023/10/02 12:05:07;;;;;;;3.80;3.45;;;;;;;;;;5070985;28;20036;-53
2023/10/02 12:07:33;;;;;;;4.35;3.92;;;;;;;;;;5060610;28;20044;-53
2023/10/02 12:09:58;;;;;;;4.53;3.80;;;;;;;;;;5058664;28;20115;-51
2023/10/02 12:12:25;;;;;;;7.10;3.50;;;;;;;;;;5062817;28;20020;-50
2023/10/02 12:14:51;;;;;;;4.28;3.85;;;;;;;;;;5052993;28;20456;-52
2023/10/02 12:17:17;;;;;;;4.72;3.58;;;;;;;;;;5055721;28;20041;-51
2023/10/02 12:19:44;;;;;;;4.35;3.28;;;;;;;;;;5058526;28;20379;-53
2023/10/02 12:22:09;;;;;;;6.63;4.03;;;;;;;;;;5061194;28;20040;-52
2023/10/02 12:24:36;;;;;;;6.55;3.72;;;;;;;;;;5057374;28;20028;-51
2023/10/02 12:27:04;;;;;;;4.25;3.65;;;;;;;;;;5058587;28;20522;-51
2023/10/02 12:29:30;;;;;;;4.28;3.78;;;;;;;;;;5056787;28;20032;-53
2023/10/02 12:32:00;;;;;;;4.30;3.83;;;;;;;;;;5056827;28;20040;-50
2023/10/02 12:34:27;;;;;;;5.03;4.55;;;;;;;;;;5053048;28;20110;-49
2023/10/02 12:36:53;;;;;;;4.30;4.00;;;;;;;;;;5062395;28;20062;-50
2023/10/02 12:39:19;;;;;;;4.07;3.05;;;;;;;;;;5061827;28;20471;-52
2023/10/02 12:41:45;;;;;;;4.07;3.70;;;;;;;;;;5058412;28;20045;-48
2023/10/02 12:44:11;;;;;;;5.13;4.70;;;;;;;;;;5056309;28;20020;-51
2023/10/02 12:46:44;;;;;;;5.28;3.78;;;;;;;;;;5062635;28;20587;-47
2023/10/02 12:49:13;;;;;;;8.10;4.43;;;;;;;;;;5057948;28;20116;-49
2023/10/02 12:51:39;;;;;;;3.72;3.40;;;;;;;;;;5062009;28;20048;-52
2023/10/02 12:54:05;;;;;;;5.05;3.95;;;;;;;;;;5060657;28;20032;-49
2023/10/02 12:56:30;;;;;;;3.45;2.95;;;;;;;;;;5056492;28;20037;-50
2023/10/02 12:58:55;;;;;;;3.38;3.03;;;;;;;;;;5060406;28;20034;-49
2023/10/02 13:01:27;;;;;;;4.32;3.90;;;;;;;;;;5067970;28;20123;-54
2023/10/02 13:03:54;;;;;;;4.03;3.55;;;;;;;;;;5053721;28;20637;-54
2023/10/02 13:06:21;;;;;;;4.30;3.90;;;;;;;;;;5065521;28;20040;-50
2023/10/02 13:08:47;;;;;;;4.90;3.65;;;;;;;;;;5057163;28;20048;-50
2023/10/02 13:11:18;;;;;;;5.70;3.97;;;;;;;;;;5057586;28;20028;-53
2023/10/02 13:13:46;;;;;;;4.78;4.38;;;;;;;;;;5058015;28;20025;-46
2023/10/02 13:16:18;;;;;;;4.88;3.38;;;;;;;;;;5060614;28;20041;-50
2023/10/02 13:18:44;;;;;;;4.72;4.38;;;;;;;;;;5058422;28;20017;-50
2023/10/02 13:21:13;;;;;;;5.03;3.03;;;;;;;;;;5063836;28;20037;-53
2023/10/02 13:23:40;;;;;;;3.92;3.63;;;;;;;;;;5069193;28;20429;-49
2023/10/02 13:26:08;;;;;;;4.55;4.25;;;;;;;;;;5057666;28;20506;-51
2023/10/02 13:28:37;;;;;;;5.63;5.07;;;;;;;;;;5056743;28;20115;-52
2023/10/02 13:31:13;;;;;;;5.72;4.78;;;;;;;;;;5057892;28;20044;-53
2023/10/02 13:33:51;;;;;;;5.28;4.78;;;;;;;;;;5056308;28;20017;-48
2023/10/02 13:36:25;;;;;;;5.63;5.20;;;;;;;;;;5053821;28;20041;-49
2023/10/02 13:38:58;;;;;;;4.63;4.22;;;;;;;;;;5056987;28;20021;-50
2023/10/02 13:41:25;;;;;;;3.95;3.53;;;;;;;;;;5057685;28;20037;-51
2023/10/02 13:43:59;;;;;;;4.80;4.32;;;;;;;;;;5063236;28;20943;-48
2023/10/02 13:46:25;;;;;;;4.05;3.38;;;;;;;;;;5054999;28;20037;-49
2023/10/02 13:48:52;;;;;;;5.38;4.90;;;;;;;;;;5061828;28;20037;-49
2023/10/02 13:51:19;;;;;;;4.25;3.78;;;;;;;;;;5057452;28;20040;-51
2023/10/02 13:53:45;;;;;;;4.47;3.58;;;;;;;;;;5056515;28;20171;-50
2023/10/02 13:56:20;;;;;;;5.30;4.30;;;;;;;;;;5055856;28;20498;-51
2023/10/02 13:58:53;;;;;;;3.95;3.65;;;;;;;;;;5058954;28;20032;-48
2023/10/02 14:01:21;;;;;;;5.07;4.30;;;;;;;;;;5058239;28;20029;-48
2023/10/02 14:03:51;;;;;;;4.35;3.92;;;;;;;;;;5059720;28;20101;-50
2023/10/02 14:06:18;;;;;;;5.10;4.70;;;;;;;;;;5052836;28;20065;-52
2023/10/02 14:08:44;;;;;;;5.05;4.03;;;;;;;;;;5059656;28;20052;-49
2023/10/02 14:11:19;;;;;;;5.50;3.85;;;;;;;;;;5045738;28;20048;-51
2023/10/02 14:13:48;;;;;;;5.65;4.65;;;;;;;;;;5054304;28;20029;-51
2023/10/02 14:16:20;;;;;;;5.38;4.97;;;;;;;;;;5052180;28;20060;-47
2023/10/02 14:18:51;;;;;;;6.05;5.18;;;;;;;;;;5050556;28;20036;-53
2023/10/02 14:21:18;;;;;;;5.05;4.65;;;;;;;;;;5052640;28;20041;-50
2023/10/02 14:23:46;;;;;;;5.43;4.93;;;;;;;;;;5061490;28;20035;-51
2023/10/02 14:26:14;;;;;;;4.32;3.63;;;;;;;;;;5058564;28;20039;-49
2023/10/02 14:28:40;;;;;;;5.88;4.97;;;;;;;;;;5059305;28;20107;-50
2023/10/02 14:31:07;;;;;;;5.88;4.88;;;;;;;;;;5052268;28;20037;-49
2023/10/02 14:33:33;;;;;;;5.18;4.63;;;;;;;;;;5049723;28;20021;-53
2023/10/02 14:36:07;;;;;;;4.88;4.03;;;;;;;;;;5067767;28;20077;-50
2023/10/02 14:38:34;;;;;;;5.07;4.47;;;;;;;;;;5054238;28;20062;-52
2023/10/02 14:41:00;;;;;;;5.32;4.93;;;;;;;;;;5052974;28;20033;-51
2023/10/02 14:43:25;;;;;;;5.15;4.72;;;;;;;;;;5046469;28;20036;-52
2023/10/02 14:45:53;;;;;;;5.07;4.28;;;;;;;;;;5054704;28;20051;-53
2023/10/02 14:48:20;;;;;;;6.88;5.20;;;;;;;;;;5047283;28;20119;-53
2023/10/02 14:50:46;;;;;;;6.43;5.30;;;;;;;;;;5051588;28;20411;-50
2023/10/02 14:53:12;;;;;;;6.65;4.82;;;;;;;;;;5052705;28;20020;-50
2023/10/02 14:55:49;;;;;;;6.15;4.38;;;;;;;;;;5056971;28;20112;-50
2023/10/02 14:58:15;;;;;;;4.85;4.32;;;;;;;;;;5055752;28;20025;-51
2023/10/02 15:00:41;;;;;;;5.00;4.07;;;;;;;;;;5059545;28;20047;-48
2023/10/02 15:03:07;;;;;;;5.70;5.20;;;;;;;;;;5055479;28;20037;-52
2023/10/02 15:05:33;;;;;;;5.35;4.50;;;;;;;;;;5055731;28;20071;-53
2023/10/02 15:08:00;;;;;;;4.43;4.00;;;;;;;;;;5055496;28;20406;-51
2023/10/02 15:10:28;;;;;;;4.78;4.25;;;;;;;;;;5051271;28;20097;-49
2023/10/02 15:12:55;;;;;;;6.22;5.63;;;;;;;;;;5056204;28;20029;-51
2023/10/02 15:15:22;;;;;;;7.10;5.20;;;;;;;;;;5060073;28;20040;-51
2023/10/02 15:17:49;;;;;;;6.38;4.90;;;;;;;;;;5061217;28;20034;-52
2023/10/02 15:20:17;;;;;;;6.63;4.57;;;;;;;;;;5043170;28;20020;-52
2023/10/02 15:22:50;;;;;;;5.25;4.85;;;;;;;;;;5050445;28;20091;-51
2023/10/02 15:25:16;;;;;;;5.00;4.57;;;;;;;;;;5054319;28;20041;-51
2023/10/02 15:27:46;;;;;;;4.72;4.32;;;;;;;;;;5052330;28;20044;-51
2023/10/02 15:30:15;;;;;;;5.03;4.63;;;;;;;;;;5054642;28;20064;-51
2023/10/02 15:32:47;;;;;;;4.75;4.35;;;;;;;;;;5055096;28;20039;-52
2023/10/02 15:35:16;;;;;;;6.97;6.32;;;;;;;;;;5051009;28;20035;-50
2023/10/02 15:37:45;;;;;;;5.13;4.72;;;;;;;;;;5051636;28;20463;-50
2023/10/02 15:40:14;;;;;;;6.30;5.15;;;;;;;;;;5054669;28;20499;-51
2023/10/02 15:42:43;;;;;;;5.07;4.68;;;;;;;;;;5063375;28;20024;-53
2023/10/02 15:45:16;;;;;;;5.15;4.65;;;;;;;;;;5049601;28;20050;-51
2023/10/02 15:47:46;;;;;;;5.72;5.32;;;;;;;;;;5056858;28;20036;-49
2023/10/02 15:50:19;;;;;;;6.57;6.07;;;;;;;;;;5052505;28;20029;-50
2023/10/02 15:52:45;;;;;;;6.35;5.85;;;;;;;;;;5049299;28;20668;-47
2023/10/02 15:55:13;;;;;;;5.95;5.32;;;;;;;;;;5054677;28;20040;-50
2023/10/02 15:57:43;;;;;;;5.40;5.00;;;;;;;;;;5050046;28;20033;-50